Terminal Aerodrome Forecast
Issued by NWS Sterling, VA

Home | Current Version | Previous Version | Text Only | Print | Product List | Glossary On
Versions: 1 2 3 4 5 6 7 8 9 10 11 12 13 14 15 16 17 18 19 20 21 22 23 24
383
FTUS41 KLWX 101136
TAFBWI
TAF
KBWI 101136Z 1012/1118 29011KT P6SM OVC070
     FM101400 28014G22KT P6SM BKN040
     FM102300 28012KT P6SM SCT060
     FM110400 28014G23KT P6SM SCT080=

USA.gov is the U.S. government's official web portal to all federal, state and local government web resources and services.